Terminal Aerodrome Forecast
Issued by NWS

Home | Current Version | Previous Version | Text Only | Print | Product List | Glossary On
Versions: 1 2 3 4 5 6 7 8 9 10 11 12 13 14 15 16 17 18 19 20 21 22 23 24 25 26 27 28 29 30 31 32 33 34 35 36 37 38 39 40 41 42 43 44 45 46
000
FTUS45 KGJT 270532
TAFDRO
TAF
KDRO 270532Z 2706/2806 04007KT P6SM VCSH SCT110 BKN150
     FM271400 VRB03KT P6SM FEW100 SCT250
     FM271800 16006KT P6SM FEW090 BKN120
     FM280300 35004KT P6SM SCT120 BKN200=

USA.gov is the U.S. government's official web portal to all federal, state and local government web resources and services.